Tiempo atmosférico en la estación meteorológica de San Sebastián Aeropuerto, Gipuzkoa (4 m.)



Fecha
DESCASC
Temp. máxima en grados centígrados (hora)
DESCASC
Temp. mínima en grados centígrados (hora)
DESCASC
Temp. media en grados centígrados
DESCASC
Racha de viento máxima en m/sg (hora)
DESCASC
Velocidad máxima media en intervalos de 10 minutos(hora)
DESCASC
Precipitaciones diarias en mm
DESCASC
Precipitaciones de 00:00 a 06:00 en mm
DESCASC
Precipitaciones de 06:00 a 12:00 en mm
DESCASC
Precipitaciones de 12:00 a 18:00 en mm
DESCASC
Precipitaciones de 18:00 a 24:00 en mm
DESCASC
23-06-2019 26.7 (09:00) 17.8 (05:30) 22.3 11.67 (09:40) 7.78 (09:40) 0 0 0 0 0
22-06-2019 27.4 (18:00) 11.3 (06:40) 19.3 8.33 (15:50) 6.39 (19:10) 0 0 0 0 0
21-06-2019 -- (--) -- (--) -- -- (--) -- (--) -- 12.1 -- -- 0
20-06-2019 20.8 (12:50) 18.1 (00:00) 19.4 6.11 (08:40) 3.89 (21:30) 1.1 0 0.5 0 0.6
19-06-2019 25 (13:10) 16.8 (00:00) 20.9 6.67 (16:30) 4.17 (16:30) 0 0 0 0 0
18-06-2019 30.9 (14:10) 17.9 (00:00) 24.4 11.67 (18:40) 6.67 (18:50) 0 0 0 0 0
17-06-2019 25.1 (19:00) 15.6 (00:00) 20.4 7.78 (08:40) 4.44 (01:50) 0 0 0 0 0
16-06-2019 25 (15:40) 13.8 (00:00) 19.4 8.89 (13:40) 6.39 (13:30) 0 0 0 0 0
15-06-2019 21.8 (13:20) 14.5 (00:00) 18.1 6.11 (13:00) 5 (15:10) 2 2 0 0 0
14-06-2019 18.1 (12:20) 13.6 (00:00) 15.9 5 (12:20) 3.89 (14:00) 1.9 0.4 0 0 1.5
13-06-2019 20.1 (16:10) 11.4 (00:00) 15.8 6.11 (16:40) 3.89 (15:30) 2.5 0 0 0 2.5
12-06-2019 20 (15:20) 12.3 (00:00) 16.2 10.28 (16:00) 6.39 (16:00) 3.7 3.4 0.3 0 0
11-06-2019 17.3 (18:10) 11.9 (00:00) 14.6 13.33 (17:40) 8.06 (12:50) 28.2 4.2 20.8 1 2.2
10-06-2019 19.3 (13:40) 14.3 (00:00) 16.8 8.33 (13:10) 4.72 (13:30) 0.5 0.2 0 0 0.3
09-06-2019 22.4 (13:10) 15.1 (00:00) 18.8 9.72 (14:20) 6.39 (14:10) 0 0 0 0 0
08-06-2019 19.9 (15:00) 10.8 (00:00) 15.3 8.33 (15:50) 5.83 (14:50) 0.4 0 0 0 0.4
07-06-2019 24.6 (00:00) 13.8 (00:00) 19.2 18.61 (03:50) 11.39 (03:10) 0.5 0.5 0 0 0
06-06-2019 29.5 (18:50) 11.6 (00:00) 20.6 13.89 (23:00) 8.61 (23:10) 0 0 0 0 0
05-06-2019 17.1 (18:00) 12.9 (00:00) 15 13.33 (14:40) 8.33 (14:50) 45.2 11 24 10.2 0
04-06-2019 24.2 (11:40) 15.5 (00:00) 19.9 11.67 (19:20) 6.94 (12:50) 5.2 0 0 0 5.2
03-06-2019 24 (15:50) 15.8 (00:00) 19.9 6.67 (08:40) 4.44 (16:50) 0 0 0 0 0
02-06-2019 26.2 (17:20) 15.9 (00:00) 21.1 7.22 (18:20) 4.72 (14:30) 0 0 0 0 0
01-06-2019 29.7 (20:10) 13.5 (00:00) 21.6 5 (13:40) 3.89 (13:50) 0 0 0 0 0
31-05-2019 25.1 (14:30) 12.3 (00:00) 18.7 8.89 (08:10) 4.72 (16:30) 0 0 0 0 0
30-05-2019 20.6 (13:30) 10.1 (00:00) 15.4 7.22 (14:40) 5 (14:50) 0 0 0 0 0
29-05-2019 20.1 (17:20) 13.2 (00:00) 16.7 9.17 (04:10) 4.72 (04:00) 0.2 0.2 0 0 0
28-05-2019 17.8 (16:40) 13 (00:00) 15.4 10.83 (16:50) 6.67 (16:50) 2.7 0 1 1.7 0
27-05-2019 16.3 (17:40) 13.5 (00:00) 14.9 8.33 (17:30) 4.72 (16:50) 5.3 2.1 0.2 2.7 0.3
26-05-2019 18.8 (18:10) 14.2 (00:00) 16.5 9.17 (15:40) 4.72 (19:20) 5.2 0 3 1.2 1

Gráficas

Temp. máximas Temp. mínimas Temp. medias Precipitaciones Rachas de viento máximas Velocidades máximas media en intervalos de 10 minutos

Datos horarios

Fecha y hora oficial Temperatura (ºC) Velocidad del viento (km/h) Dirección del viento Racha (km/h) Dirección de racha Precipitación (mm) Presión (hPa) Tendencia (hPa) Humedad (%)
2019-06-24 23:00:00 19.4 9 Sudoeste 17 Oeste 0 1015.8 2.1 82
2019-06-24 22:00:00 19.4 11 Sudoeste 24 Sudoeste 0 1014.9 1.6 82
2019-06-24 21:00:00 19.3 15 Oeste 28 Sudoeste 0 1014.4 2.6 83
2019-06-24 20:00:00 20 15 Oeste 24 Oeste 0 1013.7 2.6 81
2019-06-24 19:00:00 20.9 14 Oeste 30 Noroeste 0 1013.3 1.5 78
2019-06-24 18:00:00 23.6 7 Noroeste 22 Norte 0 1011.8 2.1 71
2019-06-24 17:00:00 22.3 12 Norte 18 Norte 0 1011.1 -1.1 76
2019-06-24 16:00:00 23.4 12 Nordeste 22 Norte 0 1011.8 -0.7 73
2019-06-24 15:00:00 21.6 16 Norte 26 Norte 0 1009.7 -3.1 77
2019-06-24 14:00:00 21.7 8 Norte 13 Norte 0 1012.2 -0.2 74
2019-06-24 13:00:00 20.4 7 Nordeste 11 Nordeste 0 1012.5 0 79
2019-06-24 12:00:00 20.4 7 Nordeste 13 Nordeste 0 1012.8 0.5 78
2019-06-24 11:00:00 19.9 9 Norte 11 Norte 0 1012.4 -0.2 79
2019-06-24 10:00:00 20 5 Este 9 Sudoeste 0 1012.5 -0.3 77
2019-06-24 09:00:00 19.4 5 Sudoeste 13 Sudoeste 0 1012.3 -0.6 79
2019-06-24 08:00:00 18.8 10 Sudoeste 24 Sudoeste 0 1012.6 0.2 82
2019-06-24 07:00:00 18.7 12 Sudoeste 21 Oeste 0 1012.8 0.7 85
2019-06-24 06:00:00 18.5 13 Oeste 28 Sudoeste 0 1012.9 0.8 86
2019-06-24 05:00:00 18.1 11 Oeste 21 Sudoeste 0 1012.4 0.1 88
2019-06-24 04:00:00 18.3 11 Sudoeste 17 Sudoeste 0 1012.1 -0.8 88
2019-06-24 03:00:00 18.4 5 Oeste 9 Sudoeste 0 1012.1 -1 87
2019-06-24 02:00:00 18.8 5 Norte 9 Noroeste 0 1012.3 -1 85
2019-06-24 01:00:00 19.2 3 Sur 11 Sudoeste 0 1012.9 0.2 83
2019-06-24 00:00:00 19.6 6 Sudoeste 13 Sudoeste 0 1013.1 0.7 82
2019-06-23 23:00:00 19.9 8 Sudoeste 11 Sudoeste 0 1013.3 1.3 81
2019-06-23 22:00:00 20.5 6 Oeste 15 Oeste 0 1012.7 0.7 80
2019-06-23 21:00:00 21.3 11 Oeste 17 Noroeste 0 1012.4 0.1 77
2019-06-23 20:00:00 22 9 Nordeste 13 Nordeste 0 1012 -0.1 75
2019-06-23 19:00:00 23.3 8 Sudeste 13 Norte 0 1012 0.2 66
2019-06-23 18:00:00 23.3 9 Norte 18 Noroeste 0 1012.3 0.8 67
2019-06-23 17:00:00 24 11 Noroeste 18 Norte 0 1012.1 0.8 63
2019-06-23 16:00:00 23.6 12 Norte 18 Norte 0 1011.8 0.9 63
2019-06-23 15:00:00 22.2 15 Nordeste 22 Nordeste 0 1011.5 0.5 72
2019-06-23 14:00:00 22.8 16 Nordeste 22 Nordeste 0 1011.3 0.2 67
2019-06-23 13:00:00 23.4 15 Nordeste 22 Nordeste 0 1010.9 -0.2 63
2019-06-23 12:00:00 24.4 10 Nordeste 13 Nordeste 0 1011 2.1 59
2019-06-23 11:00:00 24.8 8 Sudoeste 21 Noroeste 0 1011.1 2.5 57
2019-06-23 10:00:00 23.4 13 Sudoeste 42 Oeste 0 1011.1 2.6 58
2019-06-23 09:00:00 26.5 12 Sudoeste 17 Sudoeste 0 1008.9 1 48
2019-06-23 08:00:00 23.7 12 Sudeste 24 Este 0 1008.6 0.6 54
2019-06-23 07:00:00 20.4 5 Sudeste 15 Sur 0 1008.5 0.1 72
2019-06-23 06:00:00 18.2 5 Sudoeste 13 Sudoeste 0 1007.9 -1.2 84
2019-06-23 05:00:00 18.2 4 Oeste 15 Sudoeste 0 1008 -1.9 88
2019-06-23 04:00:00 18.4 3 Sudoeste 11 Sur 0 1008.4 -1.9 88
2019-06-23 03:00:00 18.7 3 Oeste 9 Oeste 0 1009.1 -1.5 87
2019-06-23 02:00:00 19.5 6 Sudoeste 9 Sudoeste 0 1009.9 -0.9 84
2019-06-23 01:00:00 20.5 5 Sur 8 Sur 0 1010.3 -0.1 79
2019-06-23 00:00:00 21.5 4 Oeste 8 Sudoeste 0 1010.6 0.1 71
2019-06-22 23:00:00 23.3 4 Este 22 Este 0 1010.8 0.1 64
2019-06-22 22:00:00 24.4 17 Este 30 Este 0 1010.4 -0.5 60
2019-06-22 21:00:00 25.6 15 Este 30 Este 0 1010.5 -0.9 58
2019-06-22 20:00:00 26.3 19 Este 30 Este 0 1010.7 -1.2 58
2019-06-22 19:00:00 27.3 20 Este 28 Este 0 1010.9 -1.8 54
2019-06-22 18:00:00 27.2 21 Nordeste 28 Nordeste 0 1011.4 -2.1 56
2019-06-22 17:00:00 26.1 15 Nordeste 28 Nordeste 0 1011.9 -2.4 60
2019-06-22 16:00:00 26.2 16 Nordeste 30 Este 0 1012.7 -2.5 57
2019-06-22 15:00:00 24.8 20 Nordeste 28 Nordeste 0 1013.5 -2.3 61
2019-06-22 14:00:00 24 17 Nordeste 26 Norte 0 1014.3 -2.2 63
2019-06-22 13:00:00 22.8 17 Nordeste 22 Nordeste 0 1015.2 -1.7 62
2019-06-22 12:00:00 20.9 12 Nordeste 18 Nordeste 0 1015.8 -1.4 68
2019-06-22 11:00:00 19 13 Este 17 Este 0 1016.5 -1.2 68
2019-06-22 10:00:00 17.8 8 Nordeste 21 Sudeste 0 1016.9 -0.8 69
2019-06-22 09:00:00 14.5 11 Sudeste 17 Sudeste 0 1017.2 -0.9 81
2019-06-22 08:00:00 12.6 11 Sur 17 Sur 0 1017.7 -0.8 88
2019-06-22 07:00:00 11.9 6 Sudeste 9 Sudeste 0 1017.7 -1.2 91
2019-06-22 06:00:00 12.2 7 Sudeste -- -- -- 1018.1 -1.2 90
2019-06-22 05:00:00 12.5 8 Sudeste 9 Sudeste 0 1018.5 -1.3 90
2019-06-22 04:00:00 12.1 8 Sur 11 Sudoeste 0 1018.9 -1.6 90
2019-06-22 03:00:00 12.8 5 Sudoeste 9 Sur 0 1019.3 -1.6 89
2019-06-22 02:00:00 13.3 7 Sur 9 Sudeste 0 1019.8 -1.1 87
2019-06-22 01:00:00 13.9 5 Sur 9 Sur 0 1020.5 0.1 87
2019-06-22 00:00:00 14.6 7 Sur 9 Sur 0 1020.9 0.7 84
2019-06-21 23:00:00 15.1 10 Sudoeste 11 Sudoeste 0 1020.9 0.8 84
2019-06-21 22:00:00 16.7 2 Noroeste 11 Norte 0 1020.4 0.6 75
2019-06-21 21:00:00 17.9 6 Noroeste 15 Norte 0 1020.2 0.5 68
2019-06-21 20:00:00 18.9 11 Norte 18 Noroeste 0 1020.1 -- 65
2019-06-21 19:00:00 19.7 12 Noroeste 21 Noroeste 0 1019.8 -0.3 63
2019-06-21 18:00:00 20.4 11 Noroeste -- -- -- 1019.7 -0.6 56
2019-06-21 17:00:00 -- -- -- -- -- -- -- -- --
2019-06-21 16:00:00 20.8 14 Oeste 26 Noroeste 0 1020.1 -0.2 59
2019-06-21 15:00:00 20.5 18 Noroeste 30 Noroeste 0 1020.3 0.2 62
2019-06-21 14:00:00 20.6 12 Noroeste 22 Noroeste 0 1020.2 -- 66
2019-06-21 13:00:00 18.7 14 Oeste 22 Noroeste 0 1020.3 -- 78
2019-06-21 12:00:00 18 6 Sudoeste -- -- -- 1020.1 0.8 83
2019-06-21 11:00:00 -- -- -- -- -- -- -- -- --
2019-06-21 10:00:00 -- -- -- -- -- -- -- -- --
2019-06-21 09:00:00 15.4 4 Este 15 Sudeste 3.5 1019.3 1.8 95
2019-06-21 08:00:00 15.4 7 Nordeste 15 Este 0.6 1018.7 1 94
2019-06-21 07:00:00 15.8 10 Este 11 Este 1.8 1018.1 0.4 94
2019-06-21 06:00:00 16.2 4 Oeste 8 Oeste 2.2 1017.5 -0.5 94
2019-06-21 05:00:00 16.3 5 Norte 9 Norte 1.3 1017.7 -0.3 93
2019-06-21 04:00:00 16.7 3 Sudoeste 9 Sudoeste 2 1017.7 -0.1 93
2019-06-21 03:00:00 17.1 5 Nordeste 15 Nordeste 0.8 1018 0.2 88
2019-06-21 02:00:00 17.3 9 Nordeste 17 Nordeste 3.6 1018 0.7 89
2019-06-21 01:00:00 17.7 15 Nordeste 26 Nordeste 2.2 1017.8 0.7 86
2019-06-21 00:00:00 19 10 Norte 21 Norte 0 1017.8 0.8 81
2019-06-20 23:00:00 19 13 Norte 18 Norte 0.6 1017.3 0.8 85
2019-06-20 22:00:00 19.3 10 Norte 18 Norte 0 1017.1 0.6 79
2019-06-20 21:00:00 19.2 10 Norte 17 Norte 0 1017 0.3 83
2019-06-20 20:00:00 20 10 Norte 17 Norte 0 1016.5 -0.2 78
2019-06-20 19:00:00 20 10 Norte 17 Norte 0 1016.5 -0.4 77
2019-06-20 18:00:00 20.3 10 Norte 17 Norte 0 1016.7 -0.4 75
2019-06-20 17:00:00 20.4 10 Norte 15 Norte 0 1016.7 -0.4 74
2019-06-20 16:00:00 20.5 10 Norte 13 Norte 0 1016.9 -0.3 75
2019-06-20 15:00:00 20.5 10 Norte 17 Norte 0 1017.1 0 76
2019-06-20 14:00:00 20.6 10 Norte 17 Noroeste 0 1017.1 0.1 76
2019-06-20 13:00:00 20.8 9 Norte 15 Norte 0 1017.2 0.3 75
2019-06-20 12:00:00 20.1 9 Norte 15 Nordeste 0 1017.1 0 78
2019-06-20 11:00:00 19.8 8 Norte 11 Norte 0 1017 0.1 80
2019-06-20 10:00:00 18.7 5 Sur 9 Sur 0 1016.9 0.1 88
2019-06-20 09:00:00 18.3 6 Sur 22 Sudeste 0 1017.1 0.5 91
2019-06-20 08:00:00 18.1 7 Norte 13 Nordeste 0.5 1016.9 0.4 91
2019-06-20 07:00:00 18.9 5 Oeste 8 Oeste 0 1016.8 0.4 85
2019-06-20 06:00:00 18.7 3 Noroeste 15 Norte 0 1016.6 -0.1 85
2019-06-20 05:00:00 18.7 7 Noroeste 15 Noroeste 0 1016.5 -0.2 86
2019-06-20 04:00:00 18.9 4 Norte 21 Noroeste 0 1016.4 -0.4 90
2019-06-20 03:00:00 19.3 2 Oeste 11 Sudoeste 0 1016.7 0.1 87
2019-06-20 02:00:00 19.7 7 Oeste 21 Oeste 0 1016.7 0.1 85
2019-06-20 01:00:00 20.4 4 Oeste 5 Oeste 0 1016.8 1 74
2019-06-20 00:00:00 20.6 0 Calma 5 Oeste 0 1016.6 1.1 73
2019-06-19 23:00:00 20.8 6 Sudoeste 8 Oeste 0 1016.6 1.6 70
2019-06-19 22:00:00 20.9 5 Norte 9 Nordeste 0 1015.8 1.1 69
2019-06-19 21:00:00 21.2 8 Norte 13 Nordeste 0 1015.5 1.2 67
2019-06-19 20:00:00 21.6 8 Nordeste 15 Nordeste 0 1015 0.5 65
2019-06-19 19:00:00 22.5 10 Norte 17 Nordeste 0 1014.7 0.6 64
2019-06-19 18:00:00 22.4 10 Norte 18 Norte 0 1014.3 0.5 66
2019-06-19 17:00:00 23.6 13 Norte 24 Norte 0 1014.5 1.3 63
2019-06-19 16:00:00 23 12 Norte 18 Norte 0 1014.1 1.3 67
2019-06-19 15:00:00 23.3 10 Norte 21 Nordeste 0 1013.8 1.4 68
2019-06-19 14:00:00 23.3 13 Nordeste 18 Nordeste 0 1013.2 1.1 67
2019-06-19 13:00:00 24.5 13 Nordeste 21 Norte 0 1012.8 0.5 62
2019-06-19 12:00:00 24 10 Norte 18 Norte 0 1012.4 0.1 62
2019-06-19 11:00:00 23.4 3 Sur 11 Sudoeste 0 1012.1 -0.2 63
2019-06-19 10:00:00 21.2 6 Sur 11 Sudoeste 0 1012.3 0 76
2019-06-19 09:00:00 19.5 9 Norte 11 Norte 0 1012.3 -0.1 82
2019-06-19 08:00:00 18.3 4 Nordeste 9 Sur 0 1012.3 0.2 86
2019-06-19 07:00:00 17 7 Sur 9 Sur 0 1012.3 0.6 89
2019-06-19 06:00:00 17 3 Sur 8 Sudeste 0 1012.4 0.8 90
2019-06-19 05:00:00 16.9 3 Oeste 8 Oeste 0 1012.1 0.9 90
2019-06-19 04:00:00 17.3 3 Noroeste 9 Sudeste 0 1011.7 0.5 89
2019-06-19 03:00:00 17.8 7 Sur 11 Sur 0 1011.6 0.4 90
2019-06-19 02:00:00 17.7 4 Oeste 11 Oeste 0 1011.2 0.3 89
2019-06-19 01:00:00 18 4 Noroeste 9 Norte 0 1011.2 0.7 88
2019-06-19 00:00:00 18.5 5 Oeste 11 Oeste 0 1011.2 1 86
2019-06-18 23:00:00 19.2 8 Oeste 18 Sudoeste 0 1010.9 1.5 83
2019-06-18 22:00:00 19.5 15 Oeste 30 Sudoeste 0 1010.5 2.8 82
2019-06-18 21:00:00 20.1 15 Sudoeste 32 Oeste 0 1010.2 4.8 82
2019-06-18 20:00:00 20.7 17 Oeste 33 Sudoeste 0 1009.4 3.7 81
2019-06-18 19:00:00 24.2 21 Oeste 42 Oeste 0 1007.7 1.1 66
2019-06-18 18:00:00 27.7 10 Norte 22 Norte 0 1005.4 -1.6 57
2019-06-18 17:00:00 27.7 17 Norte 26 Norte 0 1005.7 -2 61
2019-06-18 16:00:00 28.4 13 Norte 24 Norte 0 1006.6 -1.8 60
2019-06-18 15:00:00 29.3 17 Norte 28 Norte 0 1007 -1.8 50
2019-06-18 14:00:00 29.4 13 Norte 18 Norte 0 1007.7 -1.7 53
2019-06-18 13:00:00 26 11 Norte 18 Norte 0 1008.4 -1.2 65
2019-06-18 12:00:00 24.8 10 Norte 13 Norte 0 1008.8 -1.2 68
2019-06-18 11:00:00 22.4 10 Norte 15 Norte 0 1009.4 -0.7 73
2019-06-18 10:00:00 22.2 9 Norte 13 Nordeste 0 1009.6 -0.4 72
2019-06-18 09:00:00 20.3 3 Sur 17 Sudeste 0 1010 -0.8 79
2019-06-18 08:00:00 19.1 2 Sur 8 Sudeste 0 1010.1 -1.5 83
2019-06-18 07:00:00 18.6 13 Sudeste 22 Este 0 1010 -2.1 85
2019-06-18 06:00:00 18 7 Sudeste 11 Sur 0 1010.8 -1.7 87
2019-06-18 05:00:00 18.2 8 Sudoeste 11 Sudoeste 0 1011.6 -1.8 85
2019-06-18 04:00:00 18.7 6 Sur 11 Oeste 0 1012.1 -1.4 82
2019-06-18 03:00:00 18.5 6 Oeste 17 Oeste 0 1012.5 -1 83
2019-06-18 02:00:00 18.8 13 Oeste 22 Noroeste 0 1013.4 0 84
2019-06-18 01:00:00 18.9 5 Oeste 15 Oeste 0 1013.5 0.4 84
2019-06-18 00:00:00 19 6 Oeste 17 Oeste 0 1013.5 1.3 84
2019-06-17 23:00:00 19.4 10 Sudoeste 22 Oeste 0 1013.4 2.3 83
2019-06-17 22:00:00 19.9 13 Oeste 22 Oeste 0 1013.1 2.3 83
2019-06-17 21:00:00 21.9 12 Oeste 24 Oeste 0 1012.2 0.9 78
2019-06-17 20:00:00 24.3 7 Noroeste 17 Noroeste 0 1011.1 -0.9 71
2019-06-17 19:00:00 25.1 9 Norte 15 Norte 0 1010.8 -2 66
2019-06-17 18:00:00 24 11 Norte 21 Norte 0 1011.3 -2.2 73
2019-06-17 17:00:00 23.2 15 Norte 18 Norte 0 1012 -2.2 74
2019-06-17 16:00:00 22.5 12 Norte 21 Nordeste 0 1012.8 -2 76
2019-06-17 15:00:00 22.2 14 Norte 18 Nordeste 0 1013.5 -1.9 76
2019-06-17 14:00:00 22 13 Norte 18 Nordeste 0 1014.2 -1.5 75
2019-06-17 13:00:00 21.6 15 Norte 22 Nordeste 0 1014.8 -1.6 77
2019-06-17 12:00:00 21.1 13 Norte 21 Norte 0 1015.4 -1.3 78
2019-06-17 11:00:00 20.5 7 Nordeste 11 Norte 0 1015.7 -1.1 77
2019-06-17 10:00:00 18 7 Este 15 Este 0 1016.4 -0.3 86
2019-06-17 09:00:00 16.9 9 Este 28 Sudeste 0 1016.7 0.2 91
2019-06-17 08:00:00 16.6 6 Sudeste 15 Sur 0 1016.8 0.2 90
2019-06-17 07:00:00 15.9 5 Sudeste 8 Sudeste 0 1016.7 -0.3 91
2019-06-17 06:00:00 16.1 2 Oeste 8 Sudeste 0 1016.5 -0.8 90
2019-06-17 05:00:00 16.8 5 Oeste -- -- 0 1016.6 -1 89
2019-06-17 04:00:00 17.2 3 Oeste 13 Oeste 0 1017 -0.6 88
2019-06-17 03:00:00 17.8 10 Sudoeste 17 Sudoeste 0 1017.3 -0.2 88
2019-06-17 02:00:00 18.2 14 Sudoeste 24 Sudoeste 0 1017.6 0.5 86
2019-06-17 01:00:00 18.5 13 Sudoeste 21 Sudoeste 0 1017.6 1 86
2019-06-17 00:00:00 19.1 8 Sudoeste 17 Sudoeste 0 1017.5 1 83
2019-06-16 23:00:00 19.7 10 Sudoeste 18 Sudoeste 0 1017.1 0.7 81
2019-06-16 22:00:00 20.7 12 Sudoeste 17 Sudoeste 0 1016.6 0.3 79
2019-06-16 21:00:00 22.4 7 Sudoeste 13 Norte 0 1016.5 0.1 74
2019-06-16 20:00:00 22.1 9 Norte 24 Norte 0 1016.4 -0.3 78
2019-06-16 19:00:00 22.5 15 Nordeste 28 Nordeste 0 1016.3 -0.9 75
2019-06-16 18:00:00 23.5 15 Norte 28 Norte 0 1016.4 -1.4 71
2019-06-16 17:00:00 24.1 19 Norte 30 Norte 0 1016.7 -1.9 66
2019-06-16 16:00:00 24.5 18 Norte 30 Norte 0 1017.2 -2.3 64
2019-06-16 15:00:00 24.5 16 Norte 26 Nordeste 0 1017.8 -2.5 63
2019-06-16 14:00:00 24 19 Nordeste 32 Nordeste 0 1018.6 -2.1 60
2019-06-16 13:00:00 22.8 22 Nordeste 28 Nordeste 0 1019.5 -1.7 62
2019-06-16 12:00:00 20.6 14 Norte 22 Nordeste 0 1020.3 -1.1 71
2019-06-16 11:00:00 19.7 15 Nordeste 21 Nordeste 0 1020.7 -0.7 73
2019-06-16 10:00:00 18.5 12 Nordeste 15 Nordeste 0 1021.2 -0.2 75
2019-06-16 09:00:00 17.4 6 Norte 9 Norte 0 1021.4 0 76
2019-06-16 08:00:00 15 2 Sudeste 9 Sudeste 0 1021.4 -0.2 85
2019-06-16 07:00:00 13.8 5 Sur 9 Sur 0 1021.4 -0.2 89
2019-06-16 06:00:00 14.3 6 Sudeste 9 Sur 0 1021.4 -0.5 88
2019-06-16 05:00:00 14.1 6 Sur 9 Sudoeste 0 1021.6 -0.9 89
2019-06-16 04:00:00 14.6 6 Sur 8 Sudoeste 0 1021.6 -1.2 87
2019-06-16 03:00:00 15.3 5 Sur 8 Sur 0 1021.9 -1.1 85
2019-06-16 02:00:00 15.3 4 Sudoeste 9 Sudoeste 0 1022.5 -0.3 85
2019-06-16 01:00:00 15 7 Sudoeste 9 Sur 0 1022.8 0.5 85
2019-06-16 00:00:00 15.6 5 Sur 9 Sur 0 1023 1 82
2019-06-15 23:00:00 16.2 6 Sur 9 Noroeste 0 1022.8 1.1 80
2019-06-15 22:00:00 17.9 6 Norte 13 Norte 0 1022.3 0.8 73
2019-06-15 21:00:00 18.9 7 Norte 13 Norte 0 1022 0.7 68
2019-06-15 20:00:00 19.6 12 Nordeste 17 Nordeste 0 1021.7 0.5 65
2019-06-15 19:00:00 19.7 12 Nordeste 18 Nordeste 0 1021.5 0.4 63
2019-06-15 18:00:00 19.7 12 Nordeste 21 Norte 0 1021.3 0.2 63
2019-06-15 17:00:00 20.1 12 Norte 18 Norte 0 1021.2 0.2 61
2019-06-15 16:00:00 20.2 14 Norte 22 Nordeste 0 1021.1 0.3 57
2019-06-15 15:00:00 19.5 16 Nordeste 22 Nordeste 0 1021.1 0.5 61
2019-06-15 14:00:00 19.9 15 Nordeste 21 Nordeste 0 1021 0.6 59
2019-06-15 13:00:00 20.7 13 Norte 22 Norte 0 1020.8 0.8 56
2019-06-15 12:00:00 19.5 11 Nordeste 17 Nordeste 0 1020.6 1.4 59
2019-06-15 11:00:00 18.6 10 Oeste 15 Oeste 0 1020.4 1.7 68
2019-06-15 10:00:00 18.2 9 Sur 17 Oeste 0 1020 1.4 70
2019-06-15 09:00:00 17.1 11 Sudoeste 15 Sudoeste 0 1019.2 0.8 82
2019-06-15 08:00:00 15.3 8 Sudoeste 13 Sudoeste 0 1018.7 0.9 90
2019-06-15 07:00:00 14.8 12 Sudoeste 15 Sudoeste 0 1018.6 0.8 92
2019-06-15 06:00:00 14.6 4 Sudoeste 9 Sudoeste 0 1018.4 1 93
2019-06-15 05:00:00 14.7 4 Sudoeste 13 Sudoeste 0 1017.8 0.3 93
2019-06-15 04:00:00 14.8 9 Sudoeste 13 Sudoeste 0 1017.8 0.6 93
2019-06-15 03:00:00 14.8 9 Oeste 15 Sudoeste 1.5 1017.4 0.7 93
2019-06-15 02:00:00 15.2 8 Sudoeste 13 Sudoeste 0.4 1017.5 1.5 92
2019-06-15 01:00:00 15.1 8 Oeste 17 Sudoeste 0.1 1017.2 1.9 93
2019-06-15 00:00:00 15.4 10 Sudoeste 13 Sudoeste 0.4 1016.7 2.1 93
2019-06-14 23:00:00 15.6 5 Oeste 11 Oeste 0.4 1016 2 92
2019-06-14 22:00:00 15.7 4 Oeste 11 Noroeste 0 1015.3 1.8 91
2019-06-14 21:00:00 16 5 Noroeste 13 Norte 0.2 1014.6 1.7 91
2019-06-14 20:00:00 16.9 3 Oeste 11 Oeste 0.4 1014 1.3 88
2019-06-14 19:00:00 17.2 3 Sudoeste 17 Sudoeste 0.1 1013.5 0.7 83
2019-06-14 18:00:00 17.4 10 Noroeste 17 Noroeste 0 1012.9 0.2 84
2019-06-14 17:00:00 17.7 9 Norte 13 Norte 0 1012.7 -0.1 79
2019-06-14 16:00:00 17.7 8 Norte 15 Norte 0 1012.8 0.1 79
2019-06-14 15:00:00 17.6 11 Norte 17 Norte 0 1012.7 -0.1 78
2019-06-14 14:00:00 17.6 14 Nordeste 17 Nordeste 0 1012.8 -0.1 75
2019-06-14 13:00:00 17.8 10 Norte 18 Nordeste 0 1012.7 -0.1 74
2019-06-14 12:00:00 17.9 10 Norte 17 Nordeste 0 1012.8 -0.1 70
2019-06-14 11:00:00 17.5 9 Norte 15 Nordeste 0 1012.9 0 74
2019-06-14 10:00:00 17.4 8 Norte 13 Norte 0 1012.8 -0.3 75
2019-06-14 09:00:00 16 0 Calma 13 Sudeste 0 1012.9 -0.4 82
2019-06-14 08:00:00 14.1 0 Calma 13 Sur 0 1012.9 -0.2 90
2019-06-14 07:00:00 13.6 6 Sur 9 Sur 0 1013.1 -0.6 93
2019-06-14 06:00:00 14.1 5 Sur -- -- 0 1013.3 -0.6 92
2019-06-14 05:00:00 14.7 7 Sur 9 Sur 0 1013.1 -1.1 91
2019-06-14 04:00:00 15.1 7 Sur -- -- 0 1013.7 -0.8 92
2019-06-14 03:00:00 15.1 2 Sudoeste 8 Oeste 0 1013.9 -0.7 92
2019-06-14 02:00:00 15.3 5 Oeste 13 Sur 0 1014.2 0.2 91
2019-06-14 01:00:00 15.3 8 Sur 13 Oeste 0.4 1014.5 1.2 88
2019-06-14 00:00:00 15.7 9 Oeste 15 Sudoeste 0 1014.6 2.4 85
2019-06-13 23:00:00 16.1 5 Oeste 15 Sudoeste 0.2 1014 2.7 86
2019-06-13 22:00:00 16.3 7 Oeste 17 Noroeste 0.2 1013.3 2.2 85
2019-06-13 21:00:00 16.5 5 Oeste 15 Sudoeste 1.5 1012.2 1.8 87
2019-06-13 20:00:00 16.9 8 Noroeste 21 Norte 0.6 1011.3 0.9 85
2019-06-13 19:00:00 17.5 11 Noroeste 22 Noroeste 0 1011.1 0.6 82
2019-06-13 18:00:00 18.5 10 Norte 17 Norte 0 1010.4 -0.3 72
2019-06-13 17:00:00 18.9 11 Norte 22 Norte 0 1010.4 -0.9 69
2019-06-13 16:00:00 19.6 13 Norte 18 Norte 0 1010.5 -0.9 67
2019-06-13 15:00:00 19.2 13 Norte 21 Nordeste 0 1010.7 -1 67
2019-06-13 14:00:00 18.8 12 Norte 18 Nordeste 0 1011.3 -0.6 68
2019-06-13 13:00:00 18.3 13 Norte 18 Norte 0 1011.4 -0.6 70
2019-06-13 12:00:00 18.4 12 Norte 18 Norte 0 1011.7 -0.4 69
2019-06-13 11:00:00 18.1 12 Norte 17 Nordeste 0 1011.9 -0.2 68
2019-06-13 10:00:00 16.8 6 Norte 9 Norte 0 1012 -0.4 72
2019-06-13 09:00:00 13.9 0 Calma 9 Sur 0 1012.1 0 80
2019-06-13 08:00:00 12.8 6 Sur 11 Sudeste 0 1012.1 -0.2 84
2019-06-13 07:00:00 11.8 6 Sur 9 Sur 0 1012.4 -0.3 88
2019-06-13 06:00:00 11.5 7 Sur 9 Sudeste 0 1012.1 -1 88
2019-06-13 05:00:00 11.8 8 Sur 9 Sur 0 1012.3 -1.4 88
2019-06-13 04:00:00 12.6 8 Sudeste 11 Sudeste 0 1012.7 -1.5 83
2019-06-13 03:00:00 12.9 7 Sur 11 Sur 0 1013.1 -1.4 86
2019-06-13 02:00:00 13.4 4 Oeste 9 Sur 0 1013.7 -1.2 85
2019-06-13 01:00:00 14.7 8 Sudoeste 9 Sudoeste 0 1014.2 -0.4 79
2019-06-13 00:00:00 15.4 4 Oeste 8 Oeste 0 1014.5 0 74
2019-06-12 23:00:00 16.2 6 Sudoeste 8 Oeste 0 1014.9 0.4 72
2019-06-12 22:00:00 16.6 5 Sudoeste 9 Oeste 0 1014.6 0.3 70
2019-06-12 21:00:00 17.4 9 Oeste 15 Oeste 0 1014.5 0 65
2019-06-12 20:00:00 18.1 9 Oeste 24 Noroeste 0 1014.5 0 64
2019-06-12 19:00:00 18.6 17 Noroeste 28 Noroeste 0 1014.3 -0.3 63
2019-06-12 18:00:00 19.1 16 Oeste 30 Oeste 0 1014.5 0 60
2019-06-12 17:00:00 19.5 20 Oeste 32 Oeste 0 1014.5 -0.1 57
2019-06-12 16:00:00 19.6 23 Noroeste 37 Oeste 0 1014.6 -0.2 58
2019-06-12 15:00:00 19.7 17 Noroeste 35 Noroeste 0 1014.5 -0.2 58
2019-06-12 14:00:00 19.1 16 Noroeste 28 Noroeste 0 1014.6 0.2 52
2019-06-12 13:00:00 18.5 13 Oeste 33 Oeste 0 1014.8 0.5 48
2019-06-12 12:00:00 17.2 12 Sudoeste 21 Sudoeste 0 1014.7 0.9 51
2019-06-12 11:00:00 16.3 13 Sudoeste 24 Oeste 0 1014.4 1 57
2019-06-12 10:00:00 14.9 13 Sudoeste 24 Sudoeste 0 1014.3 0.8 61
2019-06-12 09:00:00 14.2 15 Sudoeste 24 Sudoeste 0 1013.8 0.5 64
2019-06-12 08:00:00 13 12 Sudoeste 21 Sudoeste 0 1013.4 0 75
2019-06-12 07:00:00 12.4 12 Sudoeste 21 Oeste 0.3 1013.5 -0.5 79
2019-06-12 06:00:00 12.9 13 Sudoeste 21 Oeste 0 1013.3 -1.1 79
2019-06-12 05:00:00 13 10 Sudoeste 28 Oeste 0.3 1013.4 -0.7 89
2019-06-12 04:00:00 12.7 17 Oeste 30 Oeste 0.7 1014 -0.5 88
2019-06-12 03:00:00 13.1 18 Oeste 28 Noroeste 2.4 1014.4 -0.7 86
2019-06-12 02:00:00 13.9 18 Sudoeste 26 Oeste 0 1014.1 -1.3 69
2019-06-12 01:00:00 13.5 15 Sudoeste 22 Sudoeste 0 1014.5 -1 78
2019-06-12 00:00:00 13.6 14 Sudoeste 21 Sudoeste 0.2 1015.1 -0.4 80
2019-06-11 23:00:00 14.3 15 Sudoeste 35 Oeste 0.1 1015.4 -0.1 78
2019-06-11 22:00:00 14.9 23 Oeste 42 Oeste 1.7 1015.5 -0.1 75
2019-06-11 21:00:00 15.9 24 Sudoeste 42 Sudoeste 0 1015.5 -0.3 69
2019-06-11 20:00:00 16.4 13 Oeste 33 Oeste 0 1015.5 -0.3 70
2019-06-11 19:00:00 15.7 20 Oeste 48 Noroeste 0.2 1015.6 -0.2 75
2019-06-11 18:00:00 16.4 22 Oeste 48 Oeste 0 1015.8 0.1 66
2019-06-11 17:00:00 16.1 24 Oeste 41 Oeste 0.1 1015.8 0.1 71
2019-06-11 16:00:00 15.6 15 Oeste 39 Sudoeste 0.3 1015.8 0.1 72
2019-06-11 15:00:00 15.8 17 Sudoeste 35 Sudoeste 0.2 1015.7 0.1 74
2019-06-11 14:00:00 14.8 13 Sudoeste 39 Oeste 0.2 1015.7 0.5 78
2019-06-11 13:00:00 13.6 17 Oeste 45 Oeste 0.2 1015.7 1.1 78
2019-06-11 12:00:00 12.6 10 Noroeste 37 Oeste 7.2 1015.6 0.9 87
2019-06-11 11:00:00 12.7 16 Sudoeste 35 Sudoeste 3.2 1015.2 0.8 84
2019-06-11 10:00:00 12.3 12 Sudoeste 22 Sudoeste 7.5 1014.6 0 92
2019-06-11 09:00:00 12.7 15 Sudoeste 22 Sudoeste 0.3 1014.7 0 90
2019-06-11 08:00:00 12 14 Sudoeste 22 Sudoeste 0.8 1014.4 -0.5 92
2019-06-11 07:00:00 12.2 12 Sudoeste 22 Sudoeste 1.8 1014.6 -0.5 92
2019-06-11 06:00:00 12.2 15 Sudoeste 26 Oeste 2.9 1014.7 -0.9 92
2019-06-11 05:00:00 12.4 12 Sudoeste 18 Sudoeste 0.1 1014.9 -1.1 89
2019-06-11 04:00:00 12.7 12 Sudoeste 17 Sudoeste 0.1 1015.1 -1.4 89
2019-06-11 03:00:00 13 11 Sudoeste 15 Sudoeste 0.5 1015.6 -1.1 89
2019-06-11 02:00:00 13.5 10 Sudoeste 18 Sudoeste 0.4 1016 -1.4 88
2019-06-11 01:00:00 14 9 Oeste 15 Sudoeste 0.2 1016.5 -0.6 86
2019-06-11 00:00:00 14.4 5 Sudoeste 15 Sudoeste 0.3 1016.7 -0.9 87
2019-06-10 23:00:00 15.4 8 Sudoeste 13 Sudoeste 0 1017.4 -0.4 75
2019-06-10 22:00:00 15.7 6 Sudoeste 11 Oeste 0 1017.1 -0.9 69
2019-06-10 21:00:00 16 7 Oeste 13 Oeste 0 1017.6 -0.6 68
2019-06-10 20:00:00 16.4 8 Oeste 15 Oeste 0 1017.8 -0.8 66
2019-06-10 19:00:00 16.7 8 Oeste 17 Oeste 0 1018 -0.9 63
2019-06-10 18:00:00 17.4 10 Noroeste 24 Noroeste 0 1018.2 -0.9 59
2019-06-10 17:00:00 18.2 12 Noroeste 24 Norte 0 1018.6 -0.8 60
2019-06-10 16:00:00 18.8 14 Noroeste 24 Norte 0 1018.9 -0.5 58
2019-06-10 15:00:00 18.5 17 Noroeste 26 Noroeste 0 1019.1 -0.6 58
2019-06-10 14:00:00 18.3 14 Noroeste 30 Noroeste 0 1019.4 -0.4 59
2019-06-10 13:00:00 18.8 15 Noroeste 24 Noroeste 0 1019.4 -0.5 57
2019-06-10 12:00:00 17.9 9 Noroeste 26 Norte 0 1019.7 -0.3 56
2019-06-10 11:00:00 17.5 14 Noroeste 24 Noroeste 0 1019.8 0 63
2019-06-10 10:00:00 16.8 12 Noroeste 21 Norte 0 1019.9 0.5 64
2019-06-10 09:00:00 15.6 9 Noroeste 21 Norte 0 1020 0.4 68
2019-06-10 08:00:00 15.1 10 Noroeste 18 Norte 0 1019.8 -0.1 70
2019-06-10 07:00:00 14.7 8 Norte 17 Norte 0 1019.4 -0.9 72
2019-06-10 06:00:00 14.7 11 Noroeste 17 Norte 0 1019.6 -1.2 74
2019-06-10 05:00:00 14.7 9 Noroeste 17 Norte 0.2 1019.9 -1.3 77
2019-06-10 04:00:00 15 6 Oeste 13 Oeste 0 1020.3 -0.9 77
2019-06-10 03:00:00 15.2 9 Noroeste 21 Noroeste 0 1020.8 -0.3 76
2019-06-10 02:00:00 15 13 Oeste 22 Oeste 0 1021.2 0.3 84
2019-06-10 01:00:00 16 12 Oeste 21 Oeste 0 1021.2 0.9 79
2019-06-10 00:00:00 16 8 Oeste 18 Norte 0 1021.1 1.4 76
2019-06-09 23:00:00 16.1 12 Noroeste 22 Norte 0 1020.9 1.7 79
2019-06-09 22:00:00 16.4 12 Noroeste 26 Noroeste 0 1020.3 1.7 79
2019-06-09 21:00:00 16.7 10 Noroeste 24 Norte 0 1019.7 1.4 79
2019-06-09 20:00:00 17.2 15 Noroeste 24 Noroeste 0 1019.2 1.2 80
2019-06-09 19:00:00 18 9 Noroeste 22 Norte 0 1018.6 0.8 74
2019-06-09 18:00:00 18.3 13 Oeste 28 Noroeste 0 1018.3 0.9 73
2019-06-09 17:00:00 19.6 12 Oeste 28 Noroeste 0 1018 1.1 68
2019-06-09 16:00:00 19.4 16 Oeste 30 Oeste 0 1017.8 1 71
2019-06-09 15:00:00 20.3 20 Oeste 35 Noroeste 0 1017.4 0.4 69
2019-06-09 14:00:00 21.7 21 Noroeste 33 Oeste 0 1016.9 -0.3 60
2019-06-09 13:00:00 22.1 14 Noroeste 22 Noroeste 0 1016.8 -0.4 57
2019-06-09 12:00:00 21.1 12 Oeste 21 Noroeste 0 1017 -0.4 59
2019-06-09 11:00:00 20.7 15 Sudoeste 24 Sudoeste 0 1017.2 -0.1 64
2019-06-09 10:00:00 18.9 20 Sudoeste 26 Sudoeste 0 1017.2 0.2 70
2019-06-09 09:00:00 17.7 15 Sudoeste 21 Sudoeste 0 1017.4 0.1 73
2019-06-09 08:00:00 16.1 10 Sudoeste 15 Sudoeste 0 1017.3 -0.4 79
2019-06-09 07:00:00 15.1 10 Sudoeste 15 Oeste 0 1017 -1.2 84
2019-06-09 06:00:00 15.5 11 Sudoeste 17 Oeste 0 1017.3 -1.4 83
2019-06-09 05:00:00 15.6 13 Sudoeste 21 Sudoeste 0 1017.7 -1.7 83
2019-06-09 04:00:00 15.6 13 Sudoeste 18 Sudoeste 0 1018.2 -1.9 85
2019-06-09 03:00:00 15.5 11 Sudoeste 18 Sudoeste 0 1018.7 -1.5 87
2019-06-09 02:00:00 15.6 11 Sudoeste 17 Sudoeste 0 1019.4 -1 88
2019-06-09 01:00:00 16.2 13 Sudoeste 18 Oeste 0 1020.1 -0.3 87
2019-06-09 00:00:00 17.1 8 Sudoeste 18 Oeste 0.4 1020.2 -0.1 83
2019-06-08 23:00:00 17.3 8 Oeste 13 Norte 0 1020.4 0.2 77
2019-06-08 22:00:00 17.5 8 Norte 13 Norte 0 1020.4 0.3 77
2019-06-08 21:00:00 17.9 9 Norte 15 Norte 0 1020.3 -0.2 75
2019-06-08 20:00:00 18.2 11 Norte 17 Noroeste 0 1020.2 -0.5 73
2019-06-08 19:00:00 18.5 13 Norte 24 Norte 0 1020.1 -1.4 71
2019-06-08 18:00:00 19 16 Nordeste 26 Norte 0 1020.5 -1.6 69
2019-06-08 17:00:00 19.6 15 Norte 30 Norte 0 1020.7 -2.2 66
2019-06-08 16:00:00 19.4 21 Norte 30 Norte 0 1021.5 -2.2 64
2019-06-08 15:00:00 19.7 19 Norte 28 Norte 0 1022.1 -1.9 64
2019-06-08 14:00:00 19.4 17 Norte 26 Norte 0 1022.9 -1.6 63
2019-06-08 13:00:00 19.1 15 Norte 24 Norte 0 1023.7 -1.1 62
2019-06-08 12:00:00 18.5 15 Norte 22 Norte 0 1024 -1.1 63
2019-06-08 11:00:00 18 15 Nordeste 21 Nordeste 0 1024.5 -0.5 62
2019-06-08 10:00:00 16.9 3 Norte 8 Nordeste 0 1024.8 -0.1 63
2019-06-08 09:00:00 13.9 4 Sudeste 15 Sudeste 0 1025.1 0.6 71
2019-06-08 08:00:00 11.9 7 Sur 11 Sudeste 0 1025 0.9 77
2019-06-08 07:00:00 10.9 7 Sur 11 Sudeste 0 1024.9 0.7 83
2019-06-08 06:00:00 11.1 7 Sur 11 Sudeste 0 1024.5 0.4 82
2019-06-08 05:00:00 11.5 6 Sudeste 11 Sudeste 0 1024.1 0.1 83
2019-06-08 04:00:00 11.9 8 Sur 11 Sudeste 0 1024.2 0.2 81
2019-06-08 03:00:00 12.6 8 Sur 11 Sudeste 0 1024.1 0.4 78
2019-06-08 02:00:00 12.9 6 Sur 11 Sudeste 0 1024 0.7 78
2019-06-08 01:00:00 13.2 7 Sudeste 11 Sudeste 0 1024 1.5 78
2019-06-08 00:00:00 13.9 9 Sur 11 Sur 0 1023.7 1.7 76
2019-06-07 23:00:00 15 9 Sur 13 Sur 0 1023.3 1.8 70
2019-06-07 22:00:00 16.2 9 Sudoeste 13 Oeste 0 1022.5 1.9 61
2019-06-07 21:00:00 16.7 7 Oeste 15 Oeste 0 1022 2.1 56
2019-06-07 20:00:00 17.7 11 Oeste 26 Noroeste 0 1021.5 2.4 58
2019-06-07 19:00:00 18.7 15 Oeste 35 Oeste 0 1020.6 2.4 53
2019-06-07 18:00:00 19.3 20 Oeste 37 Oeste 0 1019.9 2.8 46
2019-06-07 17:00:00 19.6 21 Oeste 42 Noroeste 0 1019.1 3 49
2019-06-07 16:00:00 19.5 24 Oeste 46 Oeste 0 1018.2 3.5 47
2019-06-07 15:00:00 19.8 23 Oeste 48 Oeste 0 1017.1 3.8 47
2019-06-07 14:00:00 19.6 26 Oeste 55 Oeste 0 1016.1 4.4 46
2019-06-07 13:00:00 19.6 21 Noroeste 42 Oeste 0 1014.7 4.5 47
2019-06-07 12:00:00 18.6 22 Oeste 32 Oeste 0 1013.3 4.4 48
2019-06-07 11:00:00 20.2 23 Sudoeste 48 Sudoeste 0 1011.7 3.9 38
2019-06-07 10:00:00 19.1 30 Sudoeste 46 Sudoeste 0 1010.2 3.4 41
2019-06-07 09:00:00 18.1 26 Sudoeste 41 Sudoeste 0 1008.9 3.4 43
2019-06-07 08:00:00 16.9 30 Sudoeste 48 Sudoeste 0 1007.8 3.5 46
2019-06-07 07:00:00 15.4 28 Sudoeste 42 Sudoeste 0 1006.8 2.5 50
2019-06-07 06:00:00 15.6 34 Sudoeste 58 Sudoeste 0 1005.5 2.5 54
2019-06-07 05:00:00 15.4 33 Sudoeste 54 Sur 0.5 1004.3 2.6 65
2019-06-07 04:00:00 18.5 33 Sudoeste 67 Sudoeste 0 1004.3 3.3 50
2019-06-07 03:00:00 20.9 33 Sudoeste 46 Sudoeste 0 1003 2.3 53
2019-06-07 02:00:00 23.6 25 Sudoeste 39 Sudoeste 0 1001.7 1.5 38
2019-06-07 01:00:00 23.5 12 Oeste 48 Sur 0 1001 1.1 38
2019-06-07 00:00:00 24.6 25 Sur 45 Sur 0 1000.7 0.5 35
2019-06-06 23:00:00 24.8 30 Sur 50 Sur 0 1000.2 -0.3 35
2019-06-06 22:00:00 25.1 15 Sur 26 Sur 0 999.9 -1.4 37
2019-06-06 21:00:00 26 15 Sur 41 Sur 0 1000.2 -2.7 33
2019-06-06 20:00:00 26.6 25 Sur 46 Sur 0 1000.5 -3.9 29
2019-06-06 19:00:00 27.4 23 Sudeste 41 Sur 0 1001.3 -4.6 27
2019-06-06 18:00:00 26.9 13 Sur 37 Sudeste 0 1002.9 -4.5 28
2019-06-06 17:00:00 26.4 19 Sudeste 30 Sur 0 1004.4 -4.4 29
2019-06-06 16:00:00 24.8 19 Este 39 Este 0 1005.9 -4.3 37
2019-06-06 15:00:00 22.1 26 Este 33 Este 0 1007.4 -3.7 54
2019-06-06 14:00:00 20.5 23 Nordeste 32 Nordeste 0 1008.8 -3.3 59
2019-06-06 13:00:00 19.7 18 Nordeste 30 Nordeste 0 1010.2 -3 59
2019-06-06 12:00:00 18.4 13 Nordeste 26 Este 0 1011.1 -2.8 60
2019-06-06 11:00:00 17 15 Este 26 Este 0 1012.1 -1.9 64
2019-06-06 10:00:00 15.5 9 Este 13 Este 0 1013.2 -1.2 69
2019-06-06 09:00:00 12.8 2 Sur 13 Sudeste 0 1013.9 -0.5 82
2019-06-06 08:00:00 11.8 0 Calma -- -- 0 1014 -0.3 86
2019-06-06 07:00:00 11.7 6 Sudeste 11 Sudeste 0 1014.4 -0.1 87
2019-06-06 06:00:00 12 9 Sur 13 Sur 0 1014.4 -0.5 85
2019-06-06 05:00:00 12.1 10 Sur 13 Sur 0 1014.3 -0.7 87
2019-06-06 04:00:00 12.3 9 Sur 11 Sur 0 1014.5 -0.9 87
2019-06-06 03:00:00 12.7 9 Sur 13 Sudoeste 0 1014.9 -0.7 84
2019-06-06 02:00:00 12.8 10 Sur 13 Sur 0 1015 -0.5 85
2019-06-06 01:00:00 13.4 9 Sur 11 Sur 0 1015.4 0.4 83
2019-06-06 00:00:00 14.9 8 Sudoeste 15 Oeste 0 1015.6 0.9 72
2019-06-05 23:00:00 15 4 Sudoeste 18 Sudoeste 0 1015.5 1 69
2019-06-05 22:00:00 15 9 Oeste 24 Oeste 0 1015 0.8 70
2019-06-05 21:00:00 15.6 14 Oeste 30 Oeste 0 1014.7 0.9 70
2019-06-05 20:00:00 16.7 13 Oeste 28 Norte 0 1014.5 1.2 64
2019-06-05 19:00:00 16.4 18 Oeste 37 Noroeste 0 1014.2 1 66
2019-06-05 18:00:00 16.9 20 Oeste 39 Oeste 0 1013.8 0.8 66
2019-06-05 17:00:00 15.4 14 Oeste 46 Sudoeste 0.3 1013.3 0.8 77
2019-06-05 16:00:00 15.2 24 Oeste 39 Oeste 1.4 1013.2 1.3 79
2019-06-05 15:00:00 14.5 24 Sudoeste 48 Sudoeste 0.3 1013 2 81
2019-06-05 14:00:00 14.5 20 Oeste 35 Oeste 5.1 1012.5 1.8 82
2019-06-05 13:00:00 13.8 14 Sudoeste 32 Sudoeste 3.1 1011.9 1.4 92
2019-06-05 12:00:00 13.3 13 Sudoeste 18 Sudoeste 2.3 1011 1.1 92
2019-06-05 11:00:00 13 8 Sudoeste 18 Oeste 4.2 1010.7 1 92
2019-06-05 10:00:00 13.2 14 Oeste 30 Oeste 5 1010.5 1.3 89
2019-06-05 09:00:00 13.3 10 Noroeste 17 Noroeste 4.5 1009.9 0.5 91
2019-06-05 08:00:00 13.5 6 Noroeste 26 Norte 3.8 1009.7 0.4 89
2019-06-05 07:00:00 13.8 12 Noroeste 28 Oeste 4.2 1009.2 -0.9 91
2019-06-05 06:00:00 14.1 13 Noroeste 21 Noroeste 5.7 1009.4 -0.9 90
2019-06-05 05:00:00 14.6 8 Noroeste 15 Noroeste 3 1009.3 -2 90
2019-06-05 04:00:00 14.8 9 Oeste 22 Sudoeste 2.2 1010.1 -1.5 89
2019-06-05 03:00:00 15.1 8 Oeste 17 Sudoeste 0.1 1010.3 -1.4 88
2019-06-05 02:00:00 15.4 11 Sur 15 Sudoeste 0 1011.3 -0.7 85
2019-06-05 01:00:00 15.4 11 Sudoeste 17 Sudoeste 0 1011.6 -0.2 86
2019-06-05 00:00:00 15.5 12 Sudoeste 17 Sudoeste 0 1011.7 -0.3 86
2019-06-04 23:00:00 15.6 8 Sudoeste 15 Sudoeste 0 1012 0.1 87
2019-06-04 22:00:00 15.7 8 Oeste 17 Sudoeste 0 1011.8 0.8 88
2019-06-04 21:00:00 15.8 12 Sudoeste 17 Sudoeste 0 1012 1.1 88
2019-06-04 20:00:00 15.8 16 Oeste 42 Noroeste 4 1011.9 1.5 87
2019-06-04 19:00:00 18.7 12 Oeste 17 Noroeste 1.2 1011 1.2 83
2019-06-04 18:00:00 19.8 9 Nordeste 17 Norte 0 1010.9 1.7 66
2019-06-04 17:00:00 20.7 10 Norte 18 Noroeste 0 1010.4 1.5 66
2019-06-04 16:00:00 20.9 13 Noroeste 30 Noroeste 0 1009.8 1.7 69
2019-06-04 15:00:00 21.4 15 Noroeste 28 Noroeste 0 1009.2 2.2 69
2019-06-04 14:00:00 20.9 15 Noroeste 30 Oeste 0 1008.9 2 76
2019-06-04 13:00:00 22.5 21 Noroeste 35 Noroeste 0 1008.1 0.9 72
2019-06-04 12:00:00 24 18 Noroeste 28 Oeste 0 1007 -0.1 67
2019-06-04 11:00:00 21.7 10 Nordeste 13 Nordeste 0 1006.9 -0.6 76
2019-06-04 10:00:00 20.7 4 Norte 9 Norte 0 1007.2 -0.2 76
2019-06-04 09:00:00 19.8 5 Sudoeste 13 Sudoeste 0 1007.1 0.2 82
2019-06-04 08:00:00 18.2 10 Sudoeste 15 Sudoeste 0 1007.5 0.2 89
2019-06-04 07:00:00 17.1 10 Sudoeste 13 Sudoeste 0 1007.4 -1 91
2019-06-04 06:00:00 17.6 4 Oeste 8 Sur 0 1006.9 -2.7 90
2019-06-04 05:00:00 18.4 7 Nordeste 9 Nordeste 0 1007.3 -3.7 87
2019-06-04 04:00:00 18.8 0 Calma 8 Oeste 0 1008.4 -3.5 88
2019-06-04 03:00:00 19 5 Oeste 9 Sudoeste 0 1009.6 -3.1 89
2019-06-04 02:00:00 19.2 6 Sudoeste 9 Oeste 0 1011 -2.2 87
2019-06-04 01:00:00 19.4 3 Norte 9 Nordeste 0 1011.9 -1 86
2019-06-04 00:00:00 19.7 4 Oeste 9 Oeste 0 1012.7 -0.2 82
2019-06-03 23:00:00 19.7 4 Noroeste 9 Oeste 0 1013.2 0.4 81
2019-06-03 22:00:00 19.6 7 Noroeste 11 Noroeste 0 1012.9 -0.2 81
2019-06-03 21:00:00 20.1 7 Norte 13 Norte 0 1012.9 -0.7 78
2019-06-03 20:00:00 20.4 10 Nordeste 17 Nordeste 0 1012.8 -1.3 78
2019-06-03 19:00:00 20.9 13 Norte 21 Nordeste 0 1013.1 -1.4 72
2019-06-03 18:00:00 21.1 13 Nordeste 18 Nordeste 0 1013.6 -1.7 69
2019-06-03 17:00:00 21.5 15 Nordeste 21 Nordeste 0 1014.1 -1.7 67
2019-06-03 16:00:00 23.6 13 Norte 21 Norte 0 1014.5 -1.7 58
2019-06-03 15:00:00 23 12 Norte 18 Noroeste 0 1015.3 -1.5 59
2019-06-03 14:00:00 20.7 13 Norte 21 Norte 0 1015.8 -1.4 73
2019-06-03 13:00:00 20.3 14 Norte 18 Norte 0 1016.2 -1.1 77
2019-06-03 12:00:00 20.6 13 Nordeste 18 Nordeste 0 1016.8 0 73
2019-06-03 11:00:00 20.5 11 Norte 17 Norte 0 1017.2 0.5 73
2019-06-03 10:00:00 19.5 10 Noroeste 15 Noroeste 0 1017.3 0.4 77
2019-06-03 09:00:00 17 3 Sur 24 Sudeste 0 1016.8 0.2 77
2019-06-03 08:00:00 16.4 8 Sudeste 15 Sur 0 1016.7 0 78
2019-06-03 07:00:00 15.8 5 Sur 13 Sur 0 1016.9 0.2 81
2019-06-03 06:00:00 16.1 6 Sur 9 Sur 0 1016.6 -0.4 79
2019-06-03 05:00:00 16.5 7 Sur 9 Sur 0 1016.7 -0.9 78
2019-06-03 04:00:00 16.9 5 Sur 9 Sudeste 0 1016.7 -0.9 74
2019-06-03 03:00:00 17 9 Sur 11 Sur 0 1017 -0.6 77
2019-06-03 02:00:00 18.1 0 Calma 13 Sudoeste 0 1017.6 -0.1 77
2019-06-03 01:00:00 18.6 11 Sudoeste 17 Sudoeste 0 1017.6 0.5 78
2019-06-03 00:00:00 19.1 10 Sudoeste 15 Sudoeste 0 1017.6 0.8 80
2019-06-02 23:00:00 19.8 10 Oeste 15 Oeste 0 1017.7 1.6 74
2019-06-02 22:00:00 20.7 6 Oeste 21 Noroeste 0 1017.1 1.3 71
2019-06-02 21:00:00 21.7 11 Oeste 18 Oeste 0 1016.8 1.3 59
2019-06-02 20:00:00 23.1 13 Sudoeste 22 Oeste 0 1016.1 0.9 56
2019-06-02 19:00:00 24.2 15 Oeste 26 Noroeste 0 1015.8 0.5 50
2019-06-02 18:00:00 25.5 12 Noroeste 24 Noroeste 0 1015.5 0.4 38
2019-06-02 17:00:00 25.7 14 Noroeste 21 Norte 0 1015.2 -0.1 57
2019-06-02 16:00:00 23.8 15 Nordeste 21 Nordeste 0 1015.3 -0.2 58
2019-06-02 15:00:00 23.3 16 Nordeste 22 Norte 0 1015.1 -0.4 61
2019-06-02 14:00:00 23.6 16 Nordeste 22 Norte 0 1015.3 -0.1 63
2019-06-02 13:00:00 25.2 13 Norte 18 Nordeste 0 1015.5 -0.4 48
2019-06-02 12:00:00 24.4 10 Norte 18 Norte 0 1015.5 -0.4 57
2019-06-02 11:00:00 23.9 7 Norte 11 Norte 0 1015.4 -0.4 59
2019-06-02 10:00:00 21.9 2 Norte 8 Norte 0 1015.9 0.4 59
2019-06-02 09:00:00 20.1 3 Este 8 Sudoeste 0 1015.9 0.1 61
2019-06-02 08:00:00 16.9 7 Sudoeste 9 Sudoeste 0 1015.8 -0.1 74
2019-06-02 07:00:00 16 5 Sur 9 Sur 0 1015.5 -0.6 79
2019-06-02 06:00:00 16.5 8 Sur 11 Sur 0 1015.8 -0.5 77
2019-06-02 05:00:00 17 4 Oeste 9 Noroeste 0 1015.9 -0.4 77
2019-06-02 04:00:00 17.8 5 Sudoeste 11 Sudoeste 0 1016.1 -0.2 75
2019-06-02 03:00:00 19.9 9 Sudoeste 17 Sudoeste 0 1016.3 0.3 60
2019-06-02 02:00:00 20.5 11 Sudoeste 18 Sudoeste 0 1016.3 0.8 59
2019-06-02 01:00:00 21 12 Sudoeste 21 Sudoeste 0 1016.3 1.7 60
2019-06-02 00:00:00 21.8 0 Calma 15 Sudoeste 0 1016 1.7 68
2019-06-01 23:00:00 22.2 2 Oeste 8 Noroeste 0 1015.5 0.9 64
2019-06-01 22:00:00 24.1 4 Noroeste 8 Nordeste 0 1014.6 -0.2 56
2019-06-01 21:00:00 28.1 2 Noroeste 9 Norte 0 1014.3 -0.8 43
2019-06-01 20:00:00 29.2 6 Norte 11 Norte 0 1014.6 -0.9 40
2019-06-01 19:00:00 28.8 8 Norte 17 Norte 0 1014.8 -1 40
2019-06-01 18:00:00 28.2 11 Norte 17 Norte 0 1015.1 -1.2 49
2019-06-01 17:00:00 28.1 12 Norte 17 Norte 0 1015.5 -1.4 51
2019-06-01 16:00:00 29.1 13 Norte 18 Norte 0 1015.8 -1.4 44
2019-06-01 15:00:00 28.1 12 Norte 18 Norte 0 1016.3 -1.1 48
2019-06-01 14:00:00 27.6 13 Norte 18 Norte 0 1016.9 -0.4 48
2019-06-01 13:00:00 28 12 Norte 17 Norte 0 1017.2 -0.3 46
2019-06-01 12:00:00 26.8 11 Norte 15 Norte 0 1017.4 -0.3 53
2019-06-01 11:00:00 25.3 3 Norte 11 Norte 0 1017.3 -0.6 56
2019-06-01 10:00:00 23.2 8 Norte 11 Norte 0 1017.5 -0.3 60
2019-06-01 09:00:00 20.2 5 Sudoeste -- -- 0 1017.7 -0.2 68
2019-06-01 08:00:00 16.3 10 Sur 11 Sur 0 1017.9 0 83
2019-06-01 07:00:00 14.1 6 Sudoeste 9 Sudoeste 0 1017.8 -0.6 90
2019-06-01 06:00:00 13.8 2 Oeste 9 Sudoeste 0 1017.9 -0.8 88
2019-06-01 05:00:00 14.4 -- -- -- -- 0 1017.9 -1.2 88
2019-06-01 04:00:00 14.6 4 Sudoeste 9 Oeste 0 1018.4 -1.1 88
2019-06-01 03:00:00 15.1 5 Sudoeste 8 Sudoeste 0 1018.7 -1.1 86
2019-06-01 02:00:00 15.8 6 Sur 9 Sudoeste 0 1019.1 -0.9 84
2019-06-01 01:00:00 16.7 3 Oeste 8 Sudoeste 0 1019.5 -0.3 83
2019-06-01 00:00:00 17.7 6 Sur 9 Sur 0 1019.8 -0.1 79
2019-05-31 23:00:00 18.1 6 Sur 8 Sur 0 1020 0 77
2019-05-31 22:00:00 20 3 Oeste 9 Noroeste 0 1019.8 -0.6 70
2019-05-31 21:00:00 21.9 3 Norte 13 Norte 0 1019.9 -1 63
2019-05-31 20:00:00 22.5 9 Norte 21 Nordeste 0 1020 -1.2 63
2019-05-31 19:00:00 22.9 15 Nordeste 21 Nordeste 0 1020.4 -1 62
2019-05-31 18:00:00 22.9 11 Nordeste 18 Nordeste 0 1020.9 -0.6 64
2019-05-31 17:00:00 22.3 12 Nordeste 24 Nordeste 0 1021.2 -0.6 69
2019-05-31 16:00:00 23.5 14 Norte 21 Norte 0 1021.4 -0.9 68
2019-05-31 15:00:00 24.8 13 Norte 21 Norte 0 1021.5 -1.1 60
2019-05-31 14:00:00 24.4 13 Norte 18 Norte 0 1021.8 -1.1 61
2019-05-31 13:00:00 23.2 12 Norte 17 Norte 0 1022.3 -0.9 62
2019-05-31 12:00:00 21.2 11 Norte 17 Norte 0 1022.6 -0.6 69
2019-05-31 11:00:00 19.3 12 Norte 15 Norte 0 1022.9 -0.5 75
2019-05-31 10:00:00 18.4 11 Norte 15 Nordeste 0 1023.2 -0.3 77
2019-05-31 09:00:00 16.8 3 Sur 32 Sudeste 0 1023.2 -0.3 80
2019-05-31 08:00:00 14.7 7 Sur 9 Sudeste 0 1023.4 -0.3 85
2019-05-31 07:00:00 12.4 8 Sur 9 Sur 0 1023.5 -0.4 91
2019-05-31 06:00:00 12.5 4 Oeste 5 Oeste 0 1023.5 -1 91
2019-05-31 05:00:00 12.9 2 Oeste 5 Oeste 0 1023.7 -1.2 91
2019-05-31 04:00:00 13.7 6 Sur 8 Sur 0 1023.9 -1.5 89
2019-05-31 03:00:00 13.9 5 Sur 11 Sur 0 1024.5 -1.2 89
2019-05-31 02:00:00 14.8 5 Sur -- -- 0 1024.9 -0.7 87
2019-05-31 01:00:00 15.2 6 Sur 8 Sur 0 1025.4 0.4 86
2019-05-31 00:00:00 15.9 6 Sur 8 Sur 0 1025.7 0.7 84
2019-05-30 23:00:00 16.7 4 Sur 9 Sur 0 1025.6 0.4 81
2019-05-30 22:00:00 17.8 4 Oeste 8 Oeste 0 1025 -0.3 77
2019-05-30 21:00:00 18.7 3 Norte 13 Nordeste 0 1025 -0.4 72
2019-05-30 20:00:00 18.7 10 Nordeste 21 Nordeste 0 1025.2 -0.3 76
2019-05-30 19:00:00 19.6 12 Nordeste 18 Norte 0 1025.3 -0.3 73
2019-05-30 18:00:00 20.1 11 Nordeste 17 Nordeste 0 1025.4 -0.5 69
2019-05-30 17:00:00 20 14 Nordeste 18 Nordeste 0 1025.5 -0.7 71
2019-05-30 16:00:00 19.8 13 Nordeste 22 Norte 0 1025.6 -0.8 70
2019-05-30 15:00:00 20 17 Norte 26 Norte 0 1025.9 -0.7 68
2019-05-30 14:00:00 19.8 15 Norte 24 Norte 0 1026.2 -0.6 67
2019-05-30 13:00:00 19.6 13 Norte 21 Nordeste 0 1026.4 -0.9 66
2019-05-30 12:00:00 19.3 13 Norte 17 Nordeste 0 1026.6 -0.7 64
2019-05-30 11:00:00 17.7 10 Norte 13 Norte 0 1026.8 -0.4 66
2019-05-30 10:00:00 16.4 0 Calma 8 Sudeste 0 1027.3 0.4 66
2019-05-30 09:00:00 13.5 3 Sur 8 Sur 0 1027.3 0.7 74
2019-05-30 08:00:00 11.1 7 Sur 15 Sudeste 0 1027.2 0.7 85
2019-05-30 07:00:00 10.4 6 Sur 11 Sudeste 0 1026.9 0 88
2019-05-30 06:00:00 10.3 8 Sur 9 Sur 0 1026.6 -0.7 89
2019-05-30 05:00:00 10.6 6 Sur 13 Sur 0 1026.5 -1.2 88
2019-05-30 04:00:00 10.9 8 Sur 9 Sur 0 1026.9 -0.9 89
2019-05-30 03:00:00 11.3 6 Sur 9 Sur 0 1027.3 -0.4 87
2019-05-30 02:00:00 11.8 7 Sur 9 Sur 0 1027.7 0 86
2019-05-30 01:00:00 12.5 6 Sur 9 Sur 0 1027.8 0.7 83
2019-05-30 00:00:00 13.2 7 Sur 11 Sur 0 1027.7 0.7 81
2019-05-29 23:00:00 14.1 6 Sur 9 Sur 0 1027.7 0.9 78
2019-05-29 22:00:00 15.8 6 Nordeste 9 Nordeste 0 1027.1 0.2 74
2019-05-29 21:00:00 16.6 7 Norte 9 Norte 0 1027 0.1 69
2019-05-29 20:00:00 17 7 Nordeste 15 Norte 0 1026.8 0 68
2019-05-29 19:00:00 19 10 Norte 22 Norte 0 1026.9 0.3 61
2019-05-29 18:00:00 19.6 12 Norte 21 Noroeste 0 1026.9 0.1 57
2019-05-29 17:00:00 19.6 14 Norte 24 Noroeste 0 1026.8 0.1 59
2019-05-29 16:00:00 19.5 14 Noroeste 24 Oeste 0 1026.6 -0.1 57
2019-05-29 15:00:00 18.7 13 Norte 28 Norte 0 1026.8 0.3 63
2019-05-29 14:00:00 18.3 13 Norte 26 Norte 0 1026.7 0.4 60
2019-05-29 13:00:00 18.5 14 Noroeste 26 Norte 0 1026.7 0.6 61
2019-05-29 12:00:00 17.9 12 Noroeste 22 Noroeste 0 1026.5 1 63
2019-05-29 11:00:00 17.1 12 Noroeste 24 Noroeste 0 1026.3 1.5 66
2019-05-29 10:00:00 16 13 Noroeste 22 Oeste 0 1026.1 2.1 70
2019-05-29 09:00:00 16.7 13 Noroeste 21 Norte 0 1025.5 1.8 66
2019-05-29 08:00:00 15.4 11 Noroeste 21 Noroeste 0 1024.8 1.3 71
2019-05-29 07:00:00 14.6 6 Noroeste 15 Oeste 0 1024 0.3 82
2019-05-29 06:00:00 14.5 11 Oeste 21 Oeste 0 1023.7 -0.1 84
2019-05-29 05:00:00 14 11 Oeste 33 Noroeste 0 1023.5 -0.4 81
2019-05-29 04:00:00 14.4 17 Oeste 30 Oeste 0.2 1023.7 0 83
2019-05-29 03:00:00 14.8 8 Oeste 21 Noroeste 0 1023.8 0.1 75
2019-05-29 02:00:00 14.8 12 Noroeste 28 Noroeste 0 1023.9 0.4 75
2019-05-29 01:00:00 15 11 Noroeste 26 Noroeste 0 1023.7 0.7 76
2019-05-29 00:00:00 15.1 13 Noroeste 26 Noroeste 0 1023.7 0.9 73
2019-05-28 23:00:00 15.2 13 Noroeste 26 Oeste 0 1023.5 1.1 75
2019-05-28 22:00:00 15.3 14 Oeste 28 Oeste 0 1023 0.8 72
2019-05-28 21:00:00 15.8 16 Noroeste 30 Oeste 0 1022.8 0.8 70
2019-05-28 20:00:00 16.1 18 Noroeste 32 Noroeste 0 1022.4 0.6 69
2019-05-28 19:00:00 16.3 18 Oeste 32 Oeste 0 1022.2 0.7 70
2019-05-28 18:00:00 16.9 18 Noroeste 35 Oeste 0 1022 0.9 69
2019-05-28 17:00:00 17.1 21 Oeste 39 Oeste 0 1021.8 0.8 69
2019-05-28 16:00:00 15.7 14 Noroeste 24 Oeste 1.4 1021.5 0.8 83
2019-05-28 15:00:00 17.4 14 Oeste 26 Oeste 0 1021.1 1 66
2019-05-28 14:00:00 15.8 17 Oeste 35 Noroeste 0.3 1021 1.1 79
2019-05-28 13:00:00 16.7 17 Oeste 32 Oeste 0 1020.7 0.9 69
2019-05-28 12:00:00 16.4 21 Sudoeste 32 Sudoeste 0 1020.1 0.5 76
2019-05-28 11:00:00 17 19 Oeste 28 Oeste 0 1019.9 0.8 73
2019-05-28 10:00:00 14.2 5 Oeste 21 Norte 0 1019.8 1.1 86
2019-05-28 09:00:00 13.2 14 Noroeste 32 Oeste 1 1019.6 1.2 88
2019-05-28 08:00:00 14.6 15 Oeste 28 Oeste 0 1019.1 0.7 77
2019-05-28 07:00:00 14.4 11 Oeste 21 Noroeste 0 1018.7 0.1 79
2019-05-28 06:00:00 14.1 13 Oeste 28 Oeste 0 1018.4 -0.2 80
2019-05-28 05:00:00 14.3 14 Oeste 28 Noroeste 0 1018.4 -0.4 79
2019-05-28 04:00:00 14.3 8 Oeste 24 Noroeste 0 1018.6 -0.4 79
2019-05-28 03:00:00 14.2 13 Oeste 24 Noroeste 0 1018.6 -0.6 81
2019-05-28 02:00:00 14.3 8 Oeste 22 Noroeste 0 1018.8 -0.2 78
2019-05-28 01:00:00 14.1 9 Oeste 17 Oeste 0 1019 0.3 81
2019-05-28 00:00:00 14.2 8 Oeste 17 Oeste 0 1019.2 1 80
2019-05-27 23:00:00 14.5 10 Oeste 22 Noroeste 0 1019 1.2 81
2019-05-27 22:00:00 14.8 11 Oeste 30 Oeste 0.1 1018.7 1.6 86
2019-05-27 21:00:00 15.4 14 Noroeste 28 Noroeste 0 1018.2 1.4 85
2019-05-27 20:00:00 15.8 15 Noroeste 24 Norte 0 1017.8 0.9 87
2019-05-27 19:00:00 16.1 10 Noroeste 28 Oeste 0.2 1017.1 -0.1 89
2019-05-27 18:00:00 16.3 15 Oeste 30 Noroeste 0.6 1016.8 -0.8 90
2019-05-27 17:00:00 16 15 Oeste 26 Sudoeste 1.2 1016.9 -0.8 90
2019-05-27 16:00:00 15.9 10 Sudoeste 17 Sur 0.8 1017.2 -0.6 92
2019-05-27 15:00:00 16 9 Sudoeste 17 Sudoeste 0.1 1017.6 -0.2 90
2019-05-27 14:00:00 15.9 10 Oeste 21 Oeste 0 1017.7 -0.2 86
2019-05-27 13:00:00 15.8 10 Sudoeste 21 Sudoeste 0 1017.8 -0.1 86
2019-05-27 12:00:00 15.3 12 Sudoeste 18 Oeste 0 1017.8 0 90
2019-05-27 11:00:00 15.2 12 Oeste 18 Oeste 0 1017.9 0.1 87
2019-05-27 10:00:00 14.6 7 Sudoeste 13 Sudoeste 0 1017.9 0.2 92
2019-05-27 09:00:00 14.7 7 Sudoeste 17 Sudoeste 0 1017.8 -0.2 89
2019-05-27 08:00:00 13.9 8 Sudoeste 17 Sudoeste 0.2 1017.8 -0.5 93
2019-05-27 07:00:00 13.7 6 Sur 15 Oeste 0 1017.7 -1.1 92
2019-05-27 06:00:00 13.5 8 Oeste 17 Sudoeste 0.8 1018 -1.2 94
2019-05-27 05:00:00 13.7 9 Sudoeste 13 Oeste 0 1018.3 -1.3 93
2019-05-27 04:00:00 13.7 7 Oeste 17 Oeste 0.2 1018.8 -1.5 90
2019-05-27 03:00:00 13.9 12 Sudoeste 18 Sudoeste 0.2 1019.2 -1.5 92
2019-05-27 02:00:00 13.9 6 Oeste 13 Sudoeste 0.3 1019.6 -1.1 92
2019-05-27 01:00:00 13.8 8 Oeste 24 Norte 0.6 1020.3 -0.4 92
2019-05-27 00:00:00 14.2 11 Sudoeste 21 Sudoeste 0.6 1020.7 -0.1 91
2019-05-26 23:00:00 14.5 8 Sudoeste 17 Sudoeste 0 1020.7 -0.2 89
2019-05-26 22:00:00 14.6 7 Oeste 13 Sudoeste 0.1 1020.7 -0.4 88
2019-05-26 21:00:00 15.2 8 Sudoeste 22 Noroeste 0.3 1020.8 -0.6 88
2019-05-26 20:00:00 16.3 15 Oeste 26 Noroeste 0 1020.9 -0.8 80
2019-05-26 19:00:00 17.8 13 Oeste 26 Oeste 0 1021.1 -0.8 72
2019-05-26 18:00:00 18.3 14 Noroeste 24 Oeste 0 1021.4 -0.7 73
2019-05-26 17:00:00 17 11 Noroeste 22 Noroeste 0 1021.7 -0.6 79
2019-05-26 16:00:00 17.3 14 Noroeste 33 Oeste 0 1021.9 -0.7 80
2019-05-26 15:00:00 16.6 14 Noroeste 26 Noroeste 0 1022.1 -0.5 84
2019-05-26 14:00:00 15.6 17 Noroeste 28 Noroeste 1.1 1022.3 -0.4 90
2019-05-26 13:00:00 15.7 11 Oeste 24 Oeste 0.1 1022.6 -0.1 88
2019-05-26 12:00:00 14.8 12 Oeste 24 Oeste 1.9 1022.6 -0.2 92
2019-05-26 11:00:00 14.7 14 Oeste 26 Oeste 0.7 1022.7 0.3 91
2019-05-26 10:00:00 14.8 13 Oeste 22 Oeste 0.1 1022.7 0.3 87
2019-05-26 09:00:00 14.6 9 Oeste 17 Oeste 0 1022.8 0.5 87
2019-05-26 08:00:00 14.4 6 Oeste 17 Oeste 0.3 1022.4 -0.1 88
2019-05-26 07:00:00 14.3 4 Sudoeste 21 Oeste 0 1022.4 -0.5 81
2019-05-26 06:00:00 14.4 7 Oeste 24 Oeste 0 1022.3 -0.9 76
2019-05-26 05:00:00 14.7 13 Noroeste 26 Noroeste 0 1022.5 -0.9 77
2019-05-26 04:00:00 14.8 10 Noroeste 21 Noroeste 0 1022.9 -1 83
2019-05-26 03:00:00 14.7 3 Noroeste 17 Oeste 0 1023.2 -1.1 85
2019-05-26 02:00:00 15 11 Oeste 18 Oeste 0 1023.4 -0.9 81
2019-05-26 01:00:00 15.1 9 Oeste 21 Oeste 0 1023.9 0 80
2019-05-26 00:00:00 15.1 12 Oeste 21 Noroeste 0 1024.3 0.7 78